sensor_id;sensor_type;location;lat;lon;timestamp;temperature;humidity
8662;DHT22;29684;47.722;9.388;2023-05-10T00:02:29;13.00;99.90
8662;DHT22;29684;47.722;9.388;2023-05-10T00:05:14;13.00;99.90
8662;DHT22;29684;47.722;9.388;2023-05-10T00:07:58;13.00;99.90
8662;DHT22;29684;47.722;9.388;2023-05-10T00:10:42;13.00;99.90
8662;DHT22;29684;47.722;9.388;2023-05-10T00:13:27;12.90;99.90
8662;DHT22;29684;47.722;9.388;2023-05-10T00:16:11;12.80;99.90
8662;DHT22;29684;47.722;9.388;2023-05-10T00:18:57;12.80;99.90
8662;DHT22;29684;47.722;9.388;2023-05-10T00:21:41;12.70;99.90
8662;DHT22;29684;47.722;9.388;2023-05-10T00:24:25;12.70;99.90
8662;DHT22;29684;47.722;9.388;2023-05-10T00:27:09;12.70;99.90
8662;DHT22;29684;47.722;9.388;2023-05-10T00:29:53;12.60;99.90
8662;DHT22;29684;47.722;9.388;2023-05-10T00:32:37;12.50;99.90
8662;DHT22;29684;47.722;9.388;2023-05-10T00:35:22;12.50;99.90
8662;DHT22;29684;47.722;9.388;2023-05-10T00:38:06;12.50;99.90
8662;DHT22;29684;47.722;9.388;2023-05-10T00:40:50;12.50;99.90
8662;DHT22;29684;47.722;9.388;2023-05-10T00:43:34;12.50;99.90
8662;DHT22;29684;47.722;9.388;2023-05-10T00:46:19;12.50;99.90
8662;DHT22;29684;47.722;9.388;2023-05-10T00:49:03;12.40;99.90
8662;DHT22;29684;47.722;9.388;2023-05-10T00:51:48;12.40;99.90
8662;DHT22;29684;47.722;9.388;2023-05-10T00:54:33;12.40;99.90
8662;DHT22;29684;47.722;9.388;2023-05-10T00:57:17;12.40;99.90
8662;DHT22;29684;47.722;9.388;2023-05-10T01:00:03;12.40;99.90
8662;DHT22;29684;47.722;9.388;2023-05-10T01:02:47;12.40;99.90
8662;DHT22;29684;47.722;9.388;2023-05-10T01:05:32;12.40;99.90
8662;DHT22;29684;47.722;9.388;2023-05-10T01:15:35;12.40;99.90
8662;DHT22;29684;47.722;9.388;2023-05-10T01:18:20;12.30;99.90
8662;DHT22;29684;47.722;9.388;2023-05-10T01:21:23;12.30;99.90
8662;DHT22;29684;47.722;9.388;2023-05-10T01:33:54;12.30;99.90
8662;DHT22;29684;47.722;9.388;2023-05-10T01:37:00;12.30;99.90
8662;DHT22;29684;47.722;9.388;2023-05-10T01:40:03;12.30;99.90
8662;DHT22;29684;47.722;9.388;2023-05-10T01:42:57;12.30;99.90
8662;DHT22;29684;47.722;9.388;2023-05-10T01:48:31;12.30;99.90
8662;DHT22;29684;47.722;9.388;2023-05-10T01:51:21;12.30;99.90
8662;DHT22;29684;47.722;9.388;2023-05-10T01:54:08;12.20;99.90
8662;DHT22;29684;47.722;9.388;2023-05-10T01:57:01;12.30;99.90
8662;DHT22;29684;47.722;9.388;2023-05-10T01:59:50;12.20;99.90
8662;DHT22;29684;47.722;9.388;2023-05-10T02:02:39;12.20;99.90
8662;DHT22;29684;47.722;9.388;2023-05-10T02:05:24;12.20;99.90
8662;DHT22;29684;47.722;9.388;2023-05-10T02:08:09;12.20;99.90
8662;DHT22;29684;47.722;9.388;2023-05-10T02:10:55;12.20;99.90
8662;DHT22;29684;47.722;9.388;2023-05-10T02:13:42;12.20;99.90
8662;DHT22;29684;47.722;9.388;2023-05-10T02:16:28;12.20;99.90
8662;DHT22;29684;47.722;9.388;2023-05-10T02:19:15;12.20;99.90
8662;DHT22;29684;47.722;9.388;2023-05-10T02:22:02;12.20;99.90
8662;DHT22;29684;47.722;9.388;2023-05-10T02:24:47;12.20;99.90
8662;DHT22;29684;47.722;9.388;2023-05-10T02:27:33;12.20;99.90
8662;DHT22;29684;47.722;9.388;2023-05-10T02:30:19;12.20;99.90
8662;DHT22;29684;47.722;9.388;2023-05-10T02:33:05;12.10;99.90
8662;DHT22;29684;47.722;9.388;2023-05-10T02:35:50;12.20;99.90
8662;DHT22;29684;47.722;9.388;2023-05-10T02:38:35;12.20;99.90
8662;DHT22;29684;47.722;9.388;2023-05-10T02:41:22;12.20;99.90
8662;DHT22;29684;47.722;9.388;2023-05-10T02:44:07;12.10;99.90
8662;DHT22;29684;47.722;9.388;2023-05-10T02:46:53;12.00;99.90
8662;DHT22;29684;47.722;9.388;2023-05-10T02:49:40;11.90;99.90
8662;DHT22;29684;47.722;9.388;2023-05-10T02:52:33;11.90;99.90
8662;DHT22;29684;47.722;9.388;2023-05-10T02:55:27;12.00;99.90
8662;DHT22;29684;47.722;9.388;2023-05-10T02:58:16;11.90;99.90
8662;DHT22;29684;47.722;9.388;2023-05-10T03:01:02;11.90;99.90
8662;DHT22;29684;47.722;9.388;2023-05-10T03:03:46;12.00;99.90
8662;DHT22;29684;47.722;9.388;2023-05-10T03:06:30;12.00;99.90
8662;DHT22;29684;47.722;9.388;2023-05-10T03:09:15;12.10;99.90
8662;DHT22;29684;47.722;9.388;2023-05-10T03:12:27;12.10;99.90
8662;DHT22;29684;47.722;9.388;2023-05-10T03:18:28;12.10;99.90
8662;DHT22;29684;47.722;9.388;2023-05-10T03:21:13;12.10;99.90
8662;DHT22;29684;47.722;9.388;2023-05-10T03:24:07;12.10;99.90
8662;DHT22;29684;47.722;9.388;2023-05-10T03:26:55;12.00;99.90
8662;DHT22;29684;47.722;9.388;2023-05-10T03:29:41;11.80;99.90
8662;DHT22;29684;47.722;9.388;2023-05-10T03:32:26;11.90;99.90
8662;DHT22;29684;47.722;9.388;2023-05-10T03:35:12;11.90;99.90
8662;DHT22;29684;47.722;9.388;2023-05-10T03:37:57;11.90;99.90
8662;DHT22;29684;47.722;9.388;2023-05-10T03:40:41;11.90;99.90
8662;DHT22;29684;47.722;9.388;2023-05-10T03:43:25;11.90;99.90
8662;DHT22;29684;47.722;9.388;2023-05-10T03:46:09;11.80;99.90
8662;DHT22;29684;47.722;9.388;2023-05-10T03:48:53;11.80;99.90
8662;DHT22;29684;47.722;9.388;2023-05-10T03:51:37;11.90;99.90
8662;DHT22;29684;47.722;9.388;2023-05-10T03:54:21;11.80;99.90
8662;DHT22;29684;47.722;9.388;2023-05-10T03:57:05;11.80;99.90
8662;DHT22;29684;47.722;9.388;2023-05-10T03:59:49;11.80;99.90
8662;DHT22;29684;47.722;9.388;2023-05-10T04:02:33;11.80;99.90
8662;DHT22;29684;47.722;9.388;2023-05-10T04:05:17;11.80;99.90
8662;DHT22;29684;47.722;9.388;2023-05-10T04:08:02;11.80;99.90
8662;DHT22;29684;47.722;9.388;2023-05-10T04:10:46;11.80;99.90
8662;DHT22;29684;47.722;9.388;2023-05-10T04:13:30;11.70;99.90
8662;DHT22;29684;47.722;9.388;2023-05-10T04:16:15;11.80;99.90
8662;DHT22;29684;47.722;9.388;2023-05-10T04:18:59;11.80;99.90
8662;DHT22;29684;47.722;9.388;2023-05-10T04:21:43;11.90;99.90
8662;DHT22;29684;47.722;9.388;2023-05-10T04:24:27;11.90;99.90
8662;DHT22;29684;47.722;9.388;2023-05-10T04:27:11;11.90;99.90
8662;DHT22;29684;47.722;9.388;2023-05-10T04:29:55;11.90;99.90
8662;DHT22;29684;47.722;9.388;2023-05-10T04:32:40;11.90;99.90
8662;DHT22;29684;47.722;9.388;2023-05-10T04:35:24;11.90;99.90
8662;DHT22;29684;47.722;9.388;2023-05-10T04:38:08;12.00;99.90
8662;DHT22;29684;47.722;9.388;2023-05-10T04:40:53;12.10;99.90
8662;DHT22;29684;47.722;9.388;2023-05-10T04:43:38;12.00;99.90
8662;DHT22;29684;47.722;9.388;2023-05-10T04:46:22;12.00;99.90
8662;DHT22;29684;47.722;9.388;2023-05-10T04:49:06;12.10;99.90
8662;DHT22;29684;47.722;9.388;2023-05-10T04:51:50;12.10;99.90
8662;DHT22;29684;47.722;9.388;2023-05-10T04:54:34;12.10;99.90
8662;DHT22;29684;47.722;9.388;2023-05-10T04:57:18;12.20;99.90
8662;DHT22;29684;47.722;9.388;2023-05-10T05:00:02;12.10;99.90
8662;DHT22;29684;47.722;9.388;2023-05-10T05:02:48;12.10;99.90
8662;DHT22;29684;47.722;9.388;2023-05-10T05:05:32;12.20;99.90
8662;DHT22;29684;47.722;9.388;2023-05-10T05:08:16;12.30;99.90
8662;DHT22;29684;47.722;9.388;2023-05-10T05:11:00;12.30;99.90
8662;DHT22;29684;47.722;9.388;2023-05-10T05:13:44;12.30;99.90
8662;DHT22;29684;47.722;9.388;2023-05-10T05:16:30;12.30;99.90
8662;DHT22;29684;47.722;9.388;2023-05-10T05:19:15;12.40;99.90
8662;DHT22;29684;47.722;9.388;2023-05-10T05:21:59;12.40;99.90
8662;DHT22;29684;47.722;9.388;2023-05-10T05:24:43;12.40;99.90
8662;DHT22;29684;47.722;9.388;2023-05-10T05:27:29;12.40;99.90
8662;DHT22;29684;47.722;9.388;2023-05-10T05:30:13;12.50;99.90
8662;DHT22;29684;47.722;9.388;2023-05-10T05:32:57;12.50;99.90
8662;DHT22;29684;47.722;9.388;2023-05-10T05:35:42;12.50;99.90
8662;DHT22;29684;47.722;9.388;2023-05-10T05:38:34;12.50;99.90
8662;DHT22;29684;47.722;9.388;2023-05-10T05:41:18;12.60;99.90
8662;DHT22;29684;47.722;9.388;2023-05-10T05:44:04;12.70;99.90
8662;DHT22;29684;47.722;9.388;2023-05-10T05:46:48;12.60;99.90
8662;DHT22;29684;47.722;9.388;2023-05-10T05:49:32;12.70;99.90
8662;DHT22;29684;47.722;9.388;2023-05-10T05:52:16;12.60;99.90
8662;DHT22;29684;47.722;9.388;2023-05-10T05:55:01;12.70;99.90
8662;DHT22;29684;47.722;9.388;2023-05-10T05:57:45;12.70;99.90
8662;DHT22;29684;47.722;9.388;2023-05-10T06:00:29;12.70;99.90
8662;DHT22;29684;47.722;9.388;2023-05-10T06:03:13;12.70;99.90
8662;DHT22;29684;47.722;9.388;2023-05-10T06:05:57;12.70;99.90
8662;DHT22;29684;47.722;9.388;2023-05-10T06:08:42;12.70;99.90
8662;DHT22;29684;47.722;9.388;2023-05-10T06:11:26;12.70;99.90
8662;DHT22;29684;47.722;9.388;2023-05-10T06:14:10;12.70;99.90
8662;DHT22;29684;47.722;9.388;2023-05-10T06:16:54;12.60;99.90
8662;DHT22;29684;47.722;9.388;2023-05-10T06:19:38;12.60;99.90
8662;DHT22;29684;47.722;9.388;2023-05-10T06:22:22;12.60;99.90
8662;DHT22;29684;47.722;9.388;2023-05-10T06:25:07;12.60;99.90
8662;DHT22;29684;47.722;9.388;2023-05-10T06:27:52;12.60;99.90
8662;DHT22;29684;47.722;9.388;2023-05-10T06:30:41;12.60;99.90
8662;DHT22;29684;47.722;9.388;2023-05-10T06:33:25;12.60;99.90
8662;DHT22;29684;47.722;9.388;2023-05-10T06:36:09;12.50;99.90
8662;DHT22;29684;47.722;9.388;2023-05-10T06:38:53;12.50;99.90
8662;DHT22;29684;47.722;9.388;2023-05-10T06:41:37;12.50;99.90
8662;DHT22;29684;47.722;9.388;2023-05-10T06:44:21;12.50;99.90
8662;DHT22;29684;47.722;9.388;2023-05-10T06:47:05;12.60;99.90
8662;DHT22;29684;47.722;9.388;2023-05-10T06:49:49;12.50;99.90
8662;DHT22;29684;47.722;9.388;2023-05-10T06:52:34;12.50;99.90
8662;DHT22;29684;47.722;9.388;2023-05-10T06:55:18;12.50;99.90
8662;DHT22;29684;47.722;9.388;2023-05-10T06:58:02;12.50;99.90
8662;DHT22;29684;47.722;9.388;2023-05-10T07:00:47;12.60;99.90
8662;DHT22;29684;47.722;9.388;2023-05-10T07:03:32;12.60;99.90
8662;DHT22;29684;47.722;9.388;2023-05-10T07:06:16;12.60;99.90
8662;DHT22;29684;47.722;9.388;2023-05-10T07:09:00;12.60;99.90
8662;DHT22;29684;47.722;9.388;2023-05-10T07:11:45;12.60;99.90
8662;DHT22;29684;47.722;9.388;2023-05-10T07:14:28;12.70;99.90
8662;DHT22;29684;47.722;9.388;2023-05-10T07:17:13;12.70;99.90
8662;DHT22;29684;47.722;9.388;2023-05-10T07:19:57;12.70;99.90
8662;DHT22;29684;47.722;9.388;2023-05-10T07:22:42;12.70;99.90
8662;DHT22;29684;47.722;9.388;2023-05-10T07:25:26;12.80;99.90
8662;DHT22;29684;47.722;9.388;2023-05-10T07:28:10;12.80;99.90
8662;DHT22;29684;47.722;9.388;2023-05-10T07:30:54;12.90;99.90
8662;DHT22;29684;47.722;9.388;2023-05-10T07:33:39;13.00;99.90
8662;DHT22;29684;47.722;9.388;2023-05-10T07:36:23;13.00;99.90
8662;DHT22;29684;47.722;9.388;2023-05-10T07:39:07;13.10;99.90
8662;DHT22;29684;47.722;9.388;2023-05-10T07:41:51;13.00;99.90
8662;DHT22;29684;47.722;9.388;2023-05-10T07:44:35;13.00;99.90
8662;DHT22;29684;47.722;9.388;2023-05-10T07:47:19;13.00;99.90
8662;DHT22;29684;47.722;9.388;2023-05-10T07:50:06;13.00;99.90
8662;DHT22;29684;47.722;9.388;2023-05-10T07:52:51;13.00;99.90
8662;DHT22;29684;47.722;9.388;2023-05-10T07:55:35;13.00;99.90
8662;DHT22;29684;47.722;9.388;2023-05-10T07:58:19;13.10;99.90
8662;DHT22;29684;47.722;9.388;2023-05-10T08:01:03;13.20;99.90
8662;DHT22;29684;47.722;9.388;2023-05-10T08:03:47;13.20;99.90
8662;DHT22;29684;47.722;9.388;2023-05-10T08:06:32;13.30;99.90
8662;DHT22;29684;47.722;9.388;2023-05-10T08:09:16;13.30;99.90
8662;DHT22;29684;47.722;9.388;2023-05-10T08:12:01;13.40;99.90
8662;DHT22;29684;47.722;9.388;2023-05-10T08:14:46;13.40;99.90
8662;DHT22;29684;47.722;9.388;2023-05-10T08:17:30;13.40;99.90
8662;DHT22;29684;47.722;9.388;2023-05-10T08:20:14;13.50;99.90
8662;DHT22;29684;47.722;9.388;2023-05-10T08:23:01;13.40;99.90
8662;DHT22;29684;47.722;9.388;2023-05-10T08:25:45;13.60;99.90
8662;DHT22;29684;47.722;9.388;2023-05-10T08:28:30;13.70;99.90
8662;DHT22;29684;47.722;9.388;2023-05-10T08:31:15;13.80;99.90
8662;DHT22;29684;47.722;9.388;2023-05-10T08:33:59;13.70;99.90
8662;DHT22;29684;47.722;9.388;2023-05-10T08:36:44;13.70;99.90
8662;DHT22;29684;47.722;9.388;2023-05-10T08:39:28;13.80;99.90
8662;DHT22;29684;47.722;9.388;2023-05-10T08:42:16;13.80;99.90
8662;DHT22;29684;47.722;9.388;2023-05-10T08:45:03;13.90;99.90
8662;DHT22;29684;47.722;9.388;2023-05-10T08:47:49;13.80;99.90
8662;DHT22;29684;47.722;9.388;2023-05-10T08:50:39;12.90;99.90
8662;DHT22;29684;47.722;9.388;2023-05-10T08:53:24;14.00;99.90
8662;DHT22;29684;47.722;9.388;2023-05-10T08:56:11;14.20;99.90
8662;DHT22;29684;47.722;9.388;2023-05-10T08:58:56;14.30;99.90
8662;DHT22;29684;47.722;9.388;2023-05-10T09:01:42;14.30;99.90
8662;DHT22;29684;47.722;9.388;2023-05-10T09:04:28;14.30;99.90
8662;DHT22;29684;47.722;9.388;2023-05-10T09:07:13;14.30;99.90
8662;DHT22;29684;47.722;9.388;2023-05-10T09:09:58;14.10;99.90
8662;DHT22;29684;47.722;9.388;2023-05-10T09:12:43;14.30;99.90
8662;DHT22;29684;47.722;9.388;2023-05-10T09:15:28;14.20;99.90
8662;DHT22;29684;47.722;9.388;2023-05-10T09:18:12;13.90;99.90
8662;DHT22;29684;47.722;9.388;2023-05-10T09:20:56;13.90;99.90
8662;DHT22;29684;47.722;9.388;2023-05-10T09:23:45;14.00;99.90
8662;DHT22;29684;47.722;9.388;2023-05-10T09:26:30;14.10;99.90
8662;DHT22;29684;47.722;9.388;2023-05-10T09:29:14;14.10;99.90
8662;DHT22;29684;47.722;9.388;2023-05-10T09:31:59;14.20;99.90
8662;DHT22;29684;47.722;9.388;2023-05-10T09:34:43;14.20;99.90
8662;DHT22;29684;47.722;9.388;2023-05-10T09:37:32;14.10;99.90
8662;DHT22;29684;47.722;9.388;2023-05-10T09:40:18;14.20;99.90
8662;DHT22;29684;47.722;9.388;2023-05-10T09:43:07;14.50;99.90
8662;DHT22;29684;47.722;9.388;2023-05-10T09:45:51;14.50;99.90
8662;DHT22;29684;47.722;9.388;2023-05-10T09:48:44;14.50;99.90
8662;DHT22;29684;47.722;9.388;2023-05-10T09:51:28;14.70;99.90
8662;DHT22;29684;47.722;9.388;2023-05-10T09:54:15;14.70;99.90
8662;DHT22;29684;47.722;9.388;2023-05-10T09:57:00;14.90;99.90
8662;DHT22;29684;47.722;9.388;2023-05-10T09:59:44;14.80;99.90
8662;DHT22;29684;47.722;9.388;2023-05-10T10:02:29;14.80;99.90
8662;DHT22;29684;47.722;9.388;2023-05-10T10:05:14;12.90;99.90
8662;DHT22;29684;47.722;9.388;2023-05-10T10:08:00;14.80;99.90
8662;DHT22;29684;47.722;9.388;2023-05-10T10:10:45;14.80;99.90
8662;DHT22;29684;47.722;9.388;2023-05-10T10:13:30;14.80;99.90
8662;DHT22;29684;47.722;9.388;2023-05-10T10:16:15;14.70;99.90
8662;DHT22;29684;47.722;9.388;2023-05-10T10:19:00;14.50;99.90
8662;DHT22;29684;47.722;9.388;2023-05-10T10:21:45;14.60;99.90
8662;DHT22;29684;47.722;9.388;2023-05-10T10:24:29;14.60;99.90
8662;DHT22;29684;47.722;9.388;2023-05-10T10:27:31;14.60;99.90
8662;DHT22;29684;47.722;9.388;2023-05-10T10:36:48;14.60;99.90
8662;DHT22;29684;47.722;9.388;2023-05-10T10:39:32;14.70;99.90
8662;DHT22;29684;47.722;9.388;2023-05-10T10:42:45;15.00;99.90
8662;DHT22;29684;47.722;9.388;2023-05-10T10:45:39;15.20;99.90
8662;DHT22;29684;47.722;9.388;2023-05-10T10:48:24;15.10;99.90
8662;DHT22;29684;47.722;9.388;2023-05-10T10:51:09;16.00;99.90
8662;DHT22;29684;47.722;9.388;2023-05-10T10:53:54;15.30;99.90
8662;DHT22;29684;47.722;9.388;2023-05-10T10:56:38;15.50;99.90
8662;DHT22;29684;47.722;9.388;2023-05-10T10:59:28;15.80;99.90
8662;DHT22;29684;47.722;9.388;2023-05-10T11:05:42;15.50;99.90
8662;DHT22;29684;47.722;9.388;2023-05-10T11:08:31;15.60;99.90
8662;DHT22;29684;47.722;9.388;2023-05-10T11:11:15;15.60;99.90
8662;DHT22;29684;47.722;9.388;2023-05-10T11:14:07;15.60;99.90
8662;DHT22;29684;47.722;9.388;2023-05-10T11:16:51;15.50;99.90
8662;DHT22;29684;47.722;9.388;2023-05-10T11:19:36;15.50;99.90
8662;DHT22;29684;47.722;9.388;2023-05-10T11:22:25;15.50;99.90
8662;DHT22;29684;47.722;9.388;2023-05-10T11:25:09;15.60;99.90
8662;DHT22;29684;47.722;9.388;2023-05-10T11:27:54;15.80;99.90
8662;DHT22;29684;47.722;9.388;2023-05-10T11:30:39;15.50;99.90
8662;DHT22;29684;47.722;9.388;2023-05-10T11:33:24;15.40;99.90
8662;DHT22;29684;47.722;9.388;2023-05-10T11:36:11;13.90;99.90
8662;DHT22;29684;47.722;9.388;2023-05-10T11:38:56;15.30;99.90
8662;DHT22;29684;47.722;9.388;2023-05-10T11:41:40;15.40;99.90
8662;DHT22;29684;47.722;9.388;2023-05-10T11:44:34;15.50;99.90
8662;DHT22;29684;47.722;9.388;2023-05-10T11:47:18;15.50;99.90
8662;DHT22;29684;47.722;9.388;2023-05-10T11:50:02;15.50;99.90
8662;DHT22;29684;47.722;9.388;2023-05-10T11:52:54;15.60;99.90
8662;DHT22;29684;47.722;9.388;2023-05-10T11:55:38;15.80;99.90
8662;DHT22;29684;47.722;9.388;2023-05-10T11:58:23;15.70;99.90
8662;DHT22;29684;47.722;9.388;2023-05-10T12:01:08;15.70;99.90
8662;DHT22;29684;47.722;9.388;2023-05-10T12:03:56;15.70;99.90
8662;DHT22;29684;47.722;9.388;2023-05-10T12:06:43;15.50;99.90
8662;DHT22;29684;47.722;9.388;2023-05-10T12:09:29;15.50;99.90
8662;DHT22;29684;47.722;9.388;2023-05-10T12:12:16;15.30;99.90
8662;DHT22;29684;47.722;9.388;2023-05-10T12:15:02;15.30;99.90
8662;DHT22;29684;47.722;9.388;2023-05-10T12:17:47;15.30;99.90
8662;DHT22;29684;47.722;9.388;2023-05-10T12:20:32;15.30;99.90
8662;DHT22;29684;47.722;9.388;2023-05-10T12:23:16;15.30;99.90
8662;DHT22;29684;47.722;9.388;2023-05-10T12:26:04;15.40;99.90
8662;DHT22;29684;47.722;9.388;2023-05-10T12:28:48;15.60;99.90
8662;DHT22;29684;47.722;9.388;2023-05-10T12:31:32;15.70;99.90
8662;DHT22;29684;47.722;9.388;2023-05-10T12:34:26;15.60;99.90
8662;DHT22;29684;47.722;9.388;2023-05-10T12:37:13;15.70;99.90
8662;DHT22;29684;47.722;9.388;2023-05-10T12:39:58;15.70;99.90
8662;DHT22;29684;47.722;9.388;2023-05-10T12:42:42;15.70;99.90
8662;DHT22;29684;47.722;9.388;2023-05-10T12:45:29;15.80;99.90
8662;DHT22;29684;47.722;9.388;2023-05-10T12:48:14;15.90;99.90
8662;DHT22;29684;47.722;9.388;2023-05-10T12:50:58;15.90;99.90
8662;DHT22;29684;47.722;9.388;2023-05-10T12:53:42;15.80;99.90
8662;DHT22;29684;47.722;9.388;2023-05-10T12:56:29;15.90;99.90
8662;DHT22;29684;47.722;9.388;2023-05-10T12:59:13;16.00;99.90
8662;DHT22;29684;47.722;9.388;2023-05-10T13:01:57;15.90;99.90
8662;DHT22;29684;47.722;9.388;2023-05-10T13:04:42;16.00;99.90
8662;DHT22;29684;47.722;9.388;2023-05-10T13:07:26;16.20;99.90
8662;DHT22;29684;47.722;9.388;2023-05-10T13:10:10;16.10;99.90
8662;DHT22;29684;47.722;9.388;2023-05-10T13:12:55;16.30;99.90
8662;DHT22;29684;47.722;9.388;2023-05-10T13:15:39;16.50;99.90
8662;DHT22;29684;47.722;9.388;2023-05-10T13:18:24;16.50;99.90
8662;DHT22;29684;47.722;9.388;2023-05-10T13:21:08;16.40;99.90
8662;DHT22;29684;47.722;9.388;2023-05-10T13:23:53;16.40;99.90
8662;DHT22;29684;47.722;9.388;2023-05-10T13:26:37;16.50;99.90
8662;DHT22;29684;47.722;9.388;2023-05-10T13:29:21;16.50;99.90
8662;DHT22;29684;47.722;9.388;2023-05-10T13:32:06;16.30;99.90
8662;DHT22;29684;47.722;9.388;2023-05-10T13:34:50;16.20;99.90
8662;DHT22;29684;47.722;9.388;2023-05-10T13:37:35;16.10;99.90
8662;DHT22;29684;47.722;9.388;2023-05-10T13:40:21;16.00;99.90
8662;DHT22;29684;47.722;9.388;2023-05-10T13:43:08;16.00;99.90
8662;DHT22;29684;47.722;9.388;2023-05-10T13:45:52;16.10;99.90
8662;DHT22;29684;47.722;9.388;2023-05-10T13:48:36;16.00;99.90
8662;DHT22;29684;47.722;9.388;2023-05-10T13:51:23;15.80;99.90
8662;DHT22;29684;47.722;9.388;2023-05-10T13:54:07;15.90;99.90
8662;DHT22;29684;47.722;9.388;2023-05-10T13:56:51;16.00;99.90
8662;DHT22;29684;47.722;9.388;2023-05-10T13:59:35;15.90;99.90
8662;DHT22;29684;47.722;9.388;2023-05-10T14:02:19;16.00;99.90
8662;DHT22;29684;47.722;9.388;2023-05-10T14:05:04;16.20;99.90
8662;DHT22;29684;47.722;9.388;2023-05-10T14:07:48;16.20;99.90
8662;DHT22;29684;47.722;9.388;2023-05-10T14:10:32;16.20;99.90
8662;DHT22;29684;47.722;9.388;2023-05-10T14:13:16;16.00;99.90
8662;DHT22;29684;47.722;9.388;2023-05-10T14:16:00;15.90;99.90
8662;DHT22;29684;47.722;9.388;2023-05-10T14:18:45;15.90;99.90
8662;DHT22;29684;47.722;9.388;2023-05-10T14:21:29;15.80;99.90
8662;DHT22;29684;47.722;9.388;2023-05-10T14:24:18;16.00;99.90
8662;DHT22;29684;47.722;9.388;2023-05-10T14:27:02;16.10;99.90
8662;DHT22;29684;47.722;9.388;2023-05-10T14:29:47;16.10;99.90
8662;DHT22;29684;47.722;9.388;2023-05-10T14:32:32;16.10;99.90
8662;DHT22;29684;47.722;9.388;2023-05-10T14:35:15;15.90;99.90
8662;DHT22;29684;47.722;9.388;2023-05-10T14:38:00;15.90;99.90
8662;DHT22;29684;47.722;9.388;2023-05-10T14:40:44;16.10;99.90
8662;DHT22;29684;47.722;9.388;2023-05-10T14:43:29;16.20;99.90
8662;DHT22;29684;47.722;9.388;2023-05-10T14:46:14;16.00;99.90
8662;DHT22;29684;47.722;9.388;2023-05-10T14:48:58;15.90;99.90
8662;DHT22;29684;47.722;9.388;2023-05-10T14:51:42;15.90;99.90
8662;DHT22;29684;47.722;9.388;2023-05-10T14:54:26;15.80;99.90
8662;DHT22;29684;47.722;9.388;2023-05-10T14:57:11;15.70;99.90
8662;DHT22;29684;47.722;9.388;2023-05-10T14:59:55;15.70;99.90
8662;DHT22;29684;47.722;9.388;2023-05-10T15:02:40;15.70;99.90
8662;DHT22;29684;47.722;9.388;2023-05-10T15:05:25;15.70;99.90
8662;DHT22;29684;47.722;9.388;2023-05-10T15:08:09;15.70;99.90
8662;DHT22;29684;47.722;9.388;2023-05-10T15:10:53;15.70;99.90
8662;DHT22;29684;47.722;9.388;2023-05-10T15:13:39;15.60;99.90
8662;DHT22;29684;47.722;9.388;2023-05-10T15:16:24;15.60;99.90
8662;DHT22;29684;47.722;9.388;2023-05-10T15:19:08;15.60;99.90
8662;DHT22;29684;47.722;9.388;2023-05-10T15:21:52;15.60;99.90
8662;DHT22;29684;47.722;9.388;2023-05-10T15:24:36;15.60;99.90
8662;DHT22;29684;47.722;9.388;2023-05-10T15:27:21;15.50;99.90
8662;DHT22;29684;47.722;9.388;2023-05-10T15:30:06;15.50;99.90
8662;DHT22;29684;47.722;9.388;2023-05-10T15:32:50;15.40;99.90
8662;DHT22;29684;47.722;9.388;2023-05-10T15:35:34;15.40;99.90
8662;DHT22;29684;47.722;9.388;2023-05-10T15:38:19;15.40;99.90
8662;DHT22;29684;47.722;9.388;2023-05-10T15:41:04;15.30;99.90
8662;DHT22;29684;47.722;9.388;2023-05-10T15:43:48;15.40;99.90
8662;DHT22;29684;47.722;9.388;2023-05-10T15:46:32;15.50;99.90
8662;DHT22;29684;47.722;9.388;2023-05-10T15:49:16;15.40;99.90
8662;DHT22;29684;47.722;9.388;2023-05-10T15:52:01;15.40;99.90
8662;DHT22;29684;47.722;9.388;2023-05-10T15:54:45;15.30;99.90
8662;DHT22;29684;47.722;9.388;2023-05-10T15:57:29;15.20;99.90
8662;DHT22;29684;47.722;9.388;2023-05-10T16:00:14;15.30;99.90
8662;DHT22;29684;47.722;9.388;2023-05-10T16:02:58;15.20;99.90
8662;DHT22;29684;47.722;9.388;2023-05-10T16:05:42;15.10;99.90
8662;DHT22;29684;47.722;9.388;2023-05-10T16:08:27;15.10;99.90
8662;DHT22;29684;47.722;9.388;2023-05-10T16:11:13;14.90;99.90
8662;DHT22;29684;47.722;9.388;2023-05-10T16:13:58;14.90;99.90
8662;DHT22;29684;47.722;9.388;2023-05-10T16:16:43;14.80;99.90
8662;DHT22;29684;47.722;9.388;2023-05-10T16:19:27;14.70;99.90
8662;DHT22;29684;47.722;9.388;2023-05-10T16:22:12;14.70;99.90
8662;DHT22;29684;47.722;9.388;2023-05-10T16:24:56;14.60;99.90
8662;DHT22;29684;47.722;9.388;2023-05-10T16:27:41;14.60;99.90
8662;DHT22;29684;47.722;9.388;2023-05-10T16:30:26;14.80;99.90
8662;DHT22;29684;47.722;9.388;2023-05-10T16:33:13;14.80;99.90
8662;DHT22;29684;47.722;9.388;2023-05-10T16:35:57;14.70;99.90
8662;DHT22;29684;47.722;9.388;2023-05-10T16:38:42;14.70;99.90
8662;DHT22;29684;47.722;9.388;2023-05-10T16:41:26;14.70;99.90
8662;DHT22;29684;47.722;9.388;2023-05-10T16:44:10;14.70;99.90
8662;DHT22;29684;47.722;9.388;2023-05-10T16:46:54;14.70;99.90
8662;DHT22;29684;47.722;9.388;2023-05-10T16:49:39;14.80;99.90
8662;DHT22;29684;47.722;9.388;2023-05-10T16:52:23;14.80;99.90
8662;DHT22;29684;47.722;9.388;2023-05-10T16:55:07;14.80;99.90
8662;DHT22;29684;47.722;9.388;2023-05-10T16:57:52;14.60;99.90
8662;DHT22;29684;47.722;9.388;2023-05-10T17:00:41;14.70;99.90
8662;DHT22;29684;47.722;9.388;2023-05-10T17:03:25;14.60;99.90
8662;DHT22;29684;47.722;9.388;2023-05-10T17:06:10;14.60;99.90
8662;DHT22;29684;47.722;9.388;2023-05-10T17:08:55;14.50;99.90
8662;DHT22;29684;47.722;9.388;2023-05-10T17:11:40;14.50;99.90
8662;DHT22;29684;47.722;9.388;2023-05-10T17:14:24;14.40;99.90
8662;DHT22;29684;47.722;9.388;2023-05-10T17:17:09;14.30;99.90
8662;DHT22;29684;47.722;9.388;2023-05-10T17:19:54;14.20;99.90
8662;DHT22;29684;47.722;9.388;2023-05-10T17:22:38;14.20;99.90
8662;DHT22;29684;47.722;9.388;2023-05-10T17:25:22;14.20;99.90
8662;DHT22;29684;47.722;9.388;2023-05-10T17:28:07;14.20;99.90
8662;DHT22;29684;47.722;9.388;2023-05-10T17:30:57;14.20;99.90
8662;DHT22;29684;47.722;9.388;2023-05-10T17:33:42;14.10;99.90
8662;DHT22;29684;47.722;9.388;2023-05-10T17:36:26;14.00;99.90
8662;DHT22;29684;47.722;9.388;2023-05-10T17:39:11;14.00;99.90
8662;DHT22;29684;47.722;9.388;2023-05-10T17:41:56;13.90;99.90
8662;DHT22;29684;47.722;9.388;2023-05-10T17:44:40;13.90;99.90
8662;DHT22;29684;47.722;9.388;2023-05-10T17:47:24;13.90;99.90
8662;DHT22;29684;47.722;9.388;2023-05-10T17:50:09;13.80;99.90
8662;DHT22;29684;47.722;9.388;2023-05-10T17:52:53;13.80;99.90
8662;DHT22;29684;47.722;9.388;2023-05-10T17:55:41;13.80;99.90
8662;DHT22;29684;47.722;9.388;2023-05-10T17:58:26;13.70;99.90
8662;DHT22;29684;47.722;9.388;2023-05-10T18:01:11;13.70;99.90
8662;DHT22;29684;47.722;9.388;2023-05-10T18:03:55;13.70;99.90
8662;DHT22;29684;47.722;9.388;2023-05-10T18:06:39;13.70;99.90
8662;DHT22;29684;47.722;9.388;2023-05-10T18:09:24;13.70;99.90
8662;DHT22;29684;47.722;9.388;2023-05-10T18:12:09;13.60;99.90
8662;DHT22;29684;47.722;9.388;2023-05-10T18:14:53;13.70;99.90